Time;durP1;ratioP1;P1;durP2;ratioP2;P2;SDS_P1;SDS_P2;PMS_P1;PMS_P2;Temp;Humidity;BMP_temperature;BMP_pressure;BME280_temperature;BME280_humidity;BME280_pressure;Samples;Min_cycle;Max_cycle;Signal;HPM_P1;HPM_P2
2020/12/25 00:00:18;;;;;;;;;;;8.20;76.60;;;;;;2596246;22;19920;-72
2020/12/25 00:01:20;;;;;;;;;;;8.20;76.00;;;;;;2596536;22;19919;-74
2020/12/25 00:02:21;;;;;;;;;;;8.10;74.50;;;;;;2596065;22;19919;-73
2020/12/25 00:03:23;;;;;;;;;;;8.20;75.70;;;;;;2596043;22;20248;-71
2020/12/25 00:04:24;;;;;;;;;;;8.10;75.40;;;;;;2595998;22;19920;-72
2020/12/25 00:05:26;;;;;;;;;;;8.20;78.60;;;;;;2596018;22;20265;-72
2020/12/25 00:06:32;;;;;;;;;;;8.30;76.40;;;;;;2596870;22;19990;-74
2020/12/25 00:07:34;;;;;;;;;;;8.30;75.70;;;;;;2596649;22;19919;-73
2020/12/25 00:08:35;;;;;;;;;;;8.20;75.60;;;;;;2596712;22;19927;-72
2020/12/25 00:09:37;;;;;;;;;;;8.20;77.20;;;;;;2583511;23;19926;-76
2020/12/25 00:10:38;;;;;;;;;;;8.40;78.40;;;;;;2582841;22;19920;-72
2020/12/25 00:11:39;;;;;;;;;;;8.40;75.10;;;;;;2596409;22;20252;-73
2020/12/25 00:12:43;;;;;;;;;;;8.40;76.70;;;;;;2596540;22;19926;-72
2020/12/25 00:13:46;;;;;;;;;;;8.50;75.60;;;;;;2596716;22;19919;-72
2020/12/25 00:14:48;;;;;;;;;;;8.50;74.80;;;;;;2596585;22;20159;-72
2020/12/25 00:15:49;;;;;;;;;;;8.40;74.10;;;;;;2596294;22;20352;-71
2020/12/25 00:16:50;;;;;;;;;;;8.40;75.40;;;;;;2596599;22;19919;-71
2020/12/25 00:17:52;;;;;;;;;;;8.30;74.50;;;;;;2596685;22;19923;-73
2020/12/25 00:18:53;;;;;;;;;;;8.30;74.50;;;;;;2596295;22;19926;-72
2020/12/25 00:19:55;;;;;;;;;;;8.30;77.10;;;;;;2596545;22;19920;-72
2020/12/25 00:20:56;;;;;;;;;;;8.20;74.90;;;;;;2595900;22;20325;-72
2020/12/25 00:21:58;;;;;;;;;;;8.20;75.10;;;;;;2596048;22;19920;-72
2020/12/25 00:22:59;;;;;;;;;;;8.00;75.00;;;;;;2596139;22;19919;-73
2020/12/25 00:24:00;;;;;;;;;;;8.00;75.90;;;;;;2596457;22;19919;-74
2020/12/25 00:25:02;;;;;;;;;;;8.10;76.40;;;;;;2596578;22;19919;-71
2020/12/25 00:26:03;;;;;;;;;;;8.20;78.40;;;;;;2596773;22;19919;-77
2020/12/25 00:27:05;;;;;;;;;;;8.30;79.10;;;;;;2582932;23;19919;-74
2020/12/25 00:28:07;;;;;;;;;;;8.20;77.20;;;;;;2570924;23;19927;-73
2020/12/25 00:29:08;;;;;;;;;;;7.90;75.30;;;;;;2583557;22;19919;-76
2020/12/25 00:30:10;;;;;;;;;;;7.80;77.10;;;;;;2596844;22;19919;-72
2020/12/25 00:31:11;;;;;;;;;;;7.70;77.20;;;;;;2596970;22;19926;-75
2020/12/25 00:32:27;;;;;;;;;;;7.70;77.90;;;;;;2596353;22;19930;-73
2020/12/25 00:33:29;;;;;;;;;;;7.60;77.90;;;;;;2596596;22;19924;-71
2020/12/25 00:34:30;;;;;;;;;;;7.70;78.30;;;;;;2597738;22;19954;-75
2020/12/25 00:35:31;;;;;;;;;;;7.70;77.90;;;;;;2599383;22;19919;-73
2020/12/25 00:36:33;;;;;;;;;;;7.80;79.10;;;;;;2598720;22;19942;-71
2020/12/25 00:37:35;;;;;;;;;;;8.00;79.70;;;;;;2599675;22;19926;-74
2020/12/25 00:38:36;;;;;;;;;;;8.00;77.30;;;;;;2600009;22;19926;-74
2020/12/25 00:39:39;;;;;;;;;;;8.00;77.50;;;;;;2600163;22;19934;-78
2020/12/25 00:40:41;;;;;;;;;;;8.20;79.20;;;;;;2600289;22;19920;-75
2020/12/25 00:41:42;;;;;;;;;;;8.20;76.70;;;;;;2600413;22;19934;-72
2020/12/25 00:42:44;;;;;;;;;;;8.20;76.00;;;;;;2597939;22;20256;-73
2020/12/25 00:43:46;;;;;;;;;;;7.90;74.90;;;;;;2597389;22;20341;-72
2020/12/25 00:44:48;;;;;;;;;;;7.70;77.30;;;;;;2597257;22;20253;-71
2020/12/25 00:45:49;;;;;;;;;;;7.90;78.30;;;;;;2597472;22;19926;-72
2020/12/25 00:46:50;;;;;;;;;;;7.90;77.40;;;;;;2597154;22;19919;-72
2020/12/25 00:47:52;;;;;;;;;;;7.90;76.80;;;;;;2597523;22;19920;-73
2020/12/25 00:48:53;;;;;;;;;;;7.90;77.10;;;;;;2597250;22;20363;-72
2020/12/25 00:49:55;;;;;;;;;;;7.90;76.00;;;;;;2596591;22;19927;-71
2020/12/25 00:50:56;;;;;;;;;;;7.90;79.70;;;;;;2596158;22;19926;-74
2020/12/25 00:51:58;;;;;;;;;;;7.60;75.80;;;;;;2582703;23;20375;-71
2020/12/25 00:52:59;;;;;;;;;;;7.90;80.40;;;;;;2582951;22;20091;-73
2020/12/25 00:54:00;;;;;;;;;;;7.90;75.90;;;;;;2595841;22;20337;-71
2020/12/25 00:55:02;;;;;;;;;;;8.10;81.10;;;;;;2596429;22;20329;-75
2020/12/25 00:56:03;;;;;;;;;;;8.10;75.20;;;;;;2596945;22;20360;-75
2020/12/25 00:57:05;;;;;;;;;;;8.10;76.40;;;;;;2596915;22;19919;-76
2020/12/25 00:58:06;;;;;;;;;;;8.10;76.30;;;;;;2596653;22;20422;-72
2020/12/25 00:59:08;;;;;;;;;;;7.80;75.10;;;;;;2596725;22;20304;-75
2020/12/25 01:00:09;;;;;;;;;;;7.90;77.30;;;;;;2596718;22;19919;-75
2020/12/25 01:01:12;;;;;;;;;;;7.80;74.70;;;;;;2596462;22;19919;-75
2020/12/25 01:02:13;;;;;;;;;;;7.70;75.60;;;;;;2596430;22;19919;-75
2020/12/25 01:03:15;;;;;;;;;;;7.90;80.50;;;;;;2596436;22;19926;-73
2020/12/25 01:04:16;;;;;;;;;;;8.00;79.20;;;;;;2596332;22;20252;-74
2020/12/25 01:05:18;;;;;;;;;;;8.10;76.50;;;;;;2596249;22;20244;-72
2020/12/25 01:06:20;;;;;;;;;;;8.20;75.90;;;;;;2596179;22;20295;-73
2020/12/25 01:07:21;;;;;;;;;;;8.10;75.20;;;;;;2596331;22;19943;-72
2020/12/25 01:08:23;;;;;;;;;;;8.10;75.60;;;;;;2596003;22;20345;-76
2020/12/25 01:09:24;;;;;;;;;;;8.00;75.80;;;;;;2596322;22;19930;-73
2020/12/25 01:10:25;;;;;;;;;;;8.10;76.10;;;;;;2596160;22;20411;-72
2020/12/25 01:11:27;;;;;;;;;;;8.10;76.30;;;;;;2596439;22;19919;-73
2020/12/25 01:12:28;;;;;;;;;;;8.20;76.30;;;;;;2596083;22;19934;-73
2020/12/25 01:13:30;;;;;;;;;;;8.20;76.40;;;;;;2596835;22;19920;-74
2020/12/25 01:14:32;;;;;;;;;;;8.30;75.60;;;;;;2596116;22;19930;-71
2020/12/25 01:15:34;;;;;;;;;;;8.30;75.80;;;;;;2596120;22;20400;-76
2020/12/25 01:16:35;;;;;;;;;;;8.20;74.40;;;;;;2595665;22;19919;-71
2020/12/25 01:17:37;;;;;;;;;;;8.30;76.70;;;;;;2596349;22;19961;-72
2020/12/25 01:18:38;;;;;;;;;;;8.30;75.10;;;;;;2596476;22;19926;-76
2020/12/25 01:19:40;;;;;;;;;;;8.30;74.90;;;;;;2596535;22;19966;-76
2020/12/25 01:20:41;;;;;;;;;;;8.40;78.10;;;;;;2595935;22;19919;-74
2020/12/25 01:21:42;;;;;;;;;;;8.40;76.60;;;;;;2596203;22;19926;-77
2020/12/25 01:22:45;;;;;;;;;;;8.40;74.80;;;;;;2596583;22;19938;-76
2020/12/25 01:23:47;;;;;;;;;;;8.30;74.40;;;;;;2596446;22;19924;-71
2020/12/25 01:24:48;;;;;;;;;;;8.30;74.40;;;;;;2596039;22;19919;-75
2020/12/25 01:25:50;;;;;;;;;;;8.30;74.30;;;;;;2596085;22;19930;-72
2020/12/25 01:26:51;;;;;;;;;;;8.20;74.10;;;;;;2595659;22;19920;-72
2020/12/25 01:27:53;;;;;;;;;;;8.30;78.60;;;;;;2595769;22;19919;-72
2020/12/25 01:29:00;;;;;;;;;;;8.30;76.00;;;;;;2595850;22;20268;-71
2020/12/25 01:30:02;;;;;;;;;;;8.30;75.20;;;;;;2596009;22;19919;-71
2020/12/25 01:31:04;;;;;;;;;;;8.20;74.30;;;;;;2596064;22;20363;-74
2020/12/25 01:32:05;;;;;;;;;;;8.20;74.20;;;;;;2596491;22;20332;-73
2020/12/25 01:33:07;;;;;;;;;;;8.20;74.40;;;;;;2583128;23;19930;-76
2020/12/25 01:34:08;;;;;;;;;;;8.20;75.70;;;;;;2582958;22;19920;-75
2020/12/25 01:35:10;;;;;;;;;;;8.20;74.70;;;;;;2596965;22;19919;-74
2020/12/25 01:36:11;;;;;;;;;;;8.10;74.40;;;;;;2596657;22;19928;-75
2020/12/25 01:37:12;;;;;;;;;;;8.10;75.00;;;;;;2596731;22;20340;-72
2020/12/25 01:38:14;;;;;;;;;;;8.10;75.80;;;;;;2583253;23;20006;-73
2020/12/25 01:39:15;;;;;;;;;;;8.10;77.50;;;;;;2583872;22;19971;-76
2020/12/25 01:40:17;;;;;;;;;;;8.10;75.30;;;;;;2596868;22;20123;-75
2020/12/25 01:41:18;;;;;;;;;;;8.00;75.20;;;;;;2596355;22;19923;-71
2020/12/25 01:42:20;;;;;;;;;;;8.00;75.30;;;;;;2596373;22;19919;-72
2020/12/25 01:43:21;;;;;;;;;;;8.00;78.90;;;;;;2595992;22;20347;-71
2020/12/25 01:44:22;;;;;;;;;;;8.00;75.70;;;;;;2596004;22;19919;-72
2020/12/25 01:45:25;;;;;;;;;;;7.90;75.50;;;;;;2595849;22;20239;-71
2020/12/25 01:46:26;;;;;;;;;;;7.80;75.60;;;;;;2595802;22;19919;-71
2020/12/25 01:47:28;;;;;;;;;;;7.80;76.70;;;;;;2595842;22;19923;-71
2020/12/25 01:48:29;;;;;;;;;;;7.70;76.60;;;;;;2595650;22;19927;-72
2020/12/25 01:49:31;;;;;;;;;;;7.70;79.00;;;;;;2595748;22;19926;-72
2020/12/25 01:50:32;;;;;;;;;;;7.70;77.40;;;;;;2595355;22;20229;-71
2020/12/25 01:51:33;;;;;;;;;;;7.80;77.60;;;;;;2597081;22;19920;-74
2020/12/25 01:52:36;;;;;;;;;;;7.70;76.70;;;;;;2597576;22;19925;-76
2020/12/25 01:53:39;;;;;;;;;;;7.70;78.00;;;;;;2597134;22;19930;-75
2020/12/25 01:54:41;;;;;;;;;;;7.70;76.70;;;;;;2597011;22;19926;-73
2020/12/25 01:55:43;;;;;;;;;;;7.70;78.00;;;;;;2597348;22;19920;-71
2020/12/25 01:56:44;;;;;;;;;;;7.80;80.00;;;;;;2596804;22;20324;-72
2020/12/25 01:57:46;;;;;;;;;;;7.80;77.00;;;;;;2596203;22;19919;-72
2020/12/25 01:58:48;;;;;;;;;;;7.80;79.70;;;;;;2596757;22;19929;-74
2020/12/25 01:59:50;;;;;;;;;;;7.90;79.50;;;;;;2596444;22;19919;-72
2020/12/25 02:00:52;;;;;;;;;;;8.00;79.10;;;;;;2595955;22;20345;-74
2020/12/25 02:01:53;;;;;;;;;;;8.00;76.20;;;;;;2595995;22;19919;-74
2020/12/25 02:02:55;;;;;;;;;;;7.90;76.10;;;;;;2595984;22;19919;-74
2020/12/25 02:03:57;;;;;;;;;;;7.80;76.40;;;;;;2595831;22;20341;-73
2020/12/25 02:04:59;;;;;;;;;;;7.90;77.00;;;;;;2596092;22;20233;-73
2020/12/25 02:06:00;;;;;;;;;;;7.80;76.10;;;;;;2596291;22;19924;-75
2020/12/25 02:07:02;;;;;;;;;;;7.80;76.90;;;;;;2596336;22;19920;-73
2020/12/25 02:08:03;;;;;;;;;;;7.80;76.40;;;;;;2595947;22;20360;-74
2020/12/25 02:09:04;;;;;;;;;;;7.80;79.50;;;;;;2596287;22;19920;-72
2020/12/25 02:10:06;;;;;;;;;;;7.80;76.80;;;;;;2596026;22;19919;-74
2020/12/25 02:11:08;;;;;;;;;;;7.80;77.80;;;;;;2596251;22;19926;-74
2020/12/25 02:12:09;;;;;;;;;;;7.80;79.60;;;;;;2596479;22;19934;-71
2020/12/25 02:13:11;;;;;;;;;;;7.80;77.70;;;;;;2596445;22;20240;-73
2020/12/25 02:14:12;;;;;;;;;;;7.80;76.70;;;;;;2596594;22;20244;-72
2020/12/25 02:15:13;;;;;;;;;;;7.80;77.10;;;;;;2583391;23;19919;-75
2020/12/25 02:16:16;;;;;;;;;;;7.70;76.60;;;;;;2583711;22;19919;-72
2020/12/25 02:17:17;;;;;;;;;;;7.70;77.00;;;;;;2597153;22;19919;-74
2020/12/25 02:18:19;;;;;;;;;;;7.60;77.10;;;;;;2583187;23;19920;-77
2020/12/25 02:19:20;;;;;;;;;;;7.70;79.10;;;;;;2582797;22;19938;-73
2020/12/25 02:20:21;;;;;;;;;;;7.70;78.10;;;;;;2595809;22;20009;-73
2020/12/25 02:21:24;;;;;;;;;;;7.60;77.80;;;;;;2595580;22;19931;-73
2020/12/25 02:22:25;;;;;;;;;;;7.70;79.40;;;;;;2595580;22;19919;-72
2020/12/25 02:23:26;;;;;;;;;;;7.70;77.90;;;;;;2595612;22;20341;-72
2020/12/25 02:24:28;;;;;;;;;;;7.70;78.00;;;;;;2595794;22;19923;-71
2020/12/25 02:25:29;;;;;;;;;;;7.70;79.20;;;;;;2595898;22;19926;-71
2020/12/25 02:26:31;;;;;;;;;;;7.70;77.40;;;;;;2596189;22;19973;-74
2020/12/25 02:27:32;;;;;;;;;;;7.70;79.50;;;;;;2595888;22;19919;-72
2020/12/25 02:28:34;;;;;;;;;;;7.80;79.50;;;;;;2596042;22;20233;-74
2020/12/25 02:29:35;;;;;;;;;;;7.80;78.00;;;;;;2596077;22;19930;-73
2020/12/25 02:30:36;;;;;;;;;;;7.70;77.50;;;;;;2595662;22;19926;-73
2020/12/25 02:31:38;;;;;;;;;;;7.70;78.40;;;;;;2595849;22;19923;-73
2020/12/25 02:32:39;;;;;;;;;;;7.70;77.50;;;;;;2596070;22;19930;-73
2020/12/25 02:33:47;;;;;;;;;;;7.70;77.40;;;;;;2596007;22;19930;-72
2020/12/25 02:34:48;;;;;;;;;;;7.60;78.10;;;;;;2595803;22;19919;-72
2020/12/25 02:35:50;;;;;;;;;;;7.60;77.60;;;;;;2595881;22;19934;-73
2020/12/25 02:36:52;;;;;;;;;;;7.60;77.60;;;;;;2596015;22;20241;-73
2020/12/25 02:37:53;;;;;;;;;;;7.60;80.90;;;;;;2596010;22;19923;-72
2020/12/25 02:38:55;;;;;;;;;;;7.70;78.50;;;;;;2596032;22;19926;-75
2020/12/25 02:39:56;;;;;;;;;;;7.70;77.60;;;;;;2596012;22;20407;-72
2020/12/25 02:40:57;;;;;;;;;;;7.60;77.60;;;;;;2596077;22;19919;-75
2020/12/25 02:41:59;;;;;;;;;;;7.50;77.70;;;;;;2596301;22;19919;-72
2020/12/25 02:43:00;;;;;;;;;;;7.50;77.70;;;;;;2582807;23;19930;-74
2020/12/25 02:44:02;;;;;;;;;;;7.50;78.00;;;;;;2582940;22;19920;-72
2020/12/25 02:45:04;;;;;;;;;;;7.50;78.00;;;;;;2596182;22;20038;-72
2020/12/25 02:46:06;;;;;;;;;;;7.40;78.70;;;;;;2596024;22;19919;-74
2020/12/25 02:47:07;;;;;;;;;;;7.40;79.20;;;;;;2596776;22;19920;-73
2020/12/25 02:48:08;;;;;;;;;;;7.40;78.60;;;;;;2596753;22;20263;-72
2020/12/25 02:49:10;;;;;;;;;;;7.40;78.40;;;;;;2596209;22;19919;-74
2020/12/25 02:50:11;;;;;;;;;;;7.40;79.60;;;;;;2596720;22;19927;-76
2020/12/25 02:51:15;;;;;;;;;;;7.40;78.90;;;;;;2597288;22;19919;-73
2020/12/25 02:52:18;;;;;;;;;;;7.40;78.60;;;;;;2599886;22;19919;-73
2020/12/25 02:53:19;;;;;;;;;;;7.40;78.80;;;;;;2599893;22;19945;-77
2020/12/25 02:54:21;;;;;;;;;;;7.30;78.90;;;;;;2599459;22;20317;-76
2020/12/25 02:55:22;;;;;;;;;;;7.30;79.20;;;;;;2598661;22;19919;-73
2020/12/25 02:56:23;;;;;;;;;;;7.30;79.10;;;;;;2599536;22;19919;-77
2020/12/25 02:57:25;;;;;;;;;;;7.30;79.60;;;;;;2599097;22;19926;-74
2020/12/25 02:58:26;;;;;;;;;;;7.30;79.40;;;;;;2598834;22;19920;-74
2020/12/25 02:59:28;;;;;;;;;;;7.30;80.00;;;;;;2598912;22;20332;-72
2020/12/25 03:00:29;;;;;;;;;;;7.30;80.00;;;;;;2599113;22;19919;-72
2020/12/25 03:01:30;;;;;;;;;;;7.30;80.00;;;;;;2599121;22;19926;-72
2020/12/25 03:02:32;;;;;;;;;;;7.30;80.10;;;;;;2598270;22;19919;-74
2020/12/25 03:03:33;;;;;;;;;;;7.40;80.20;;;;;;2598384;22;20241;-70
2020/12/25 03:04:35;;;;;;;;;;;7.30;79.90;;;;;;2585356;23;19971;-76
2020/12/25 03:05:36;;;;;;;;;;;7.40;80.50;;;;;;2571639;23;20229;-73
2020/12/25 03:06:37;;;;;;;;;;;7.40;79.70;;;;;;2582781;22;19955;-74
2020/12/25 03:07:40;;;;;;;;;;;7.40;80.10;;;;;;2595803;22;20375;-75
2020/12/25 03:08:41;;;;;;;;;;;7.40;80.20;;;;;;2582339;23;20353;-72
2020/12/25 03:09:43;;;;;;;;;;;7.40;80.00;;;;;;2583124;22;19920;-75
2020/12/25 03:10:45;;;;;;;;;;;7.30;79.40;;;;;;2596253;22;19943;-72
2020/12/25 03:11:46;;;;;;;;;;;7.30;79.80;;;;;;2582495;23;19954;-73
2020/12/25 03:12:47;;;;;;;;;;;7.40;79.90;;;;;;2583189;22;19919;-73
2020/12/25 03:13:49;;;;;;;;;;;7.30;79.50;;;;;;2595904;22;19932;-72
2020/12/25 03:14:50;;;;;;;;;;;7.40;82.40;;;;;;2595902;22;20304;-74
2020/12/25 03:15:52;;;;;;;;;;;7.50;80.50;;;;;;2595487;22;19942;-73
2020/12/25 03:16:53;;;;;;;;;;;7.60;79.50;;;;;;2596134;22;19920;-72
2020/12/25 03:17:55;;;;;;;;;;;7.60;79.00;;;;;;2595621;22;19919;-74
2020/12/25 03:18:56;;;;;;;;;;;7.50;78.60;;;;;;2595645;22;20337;-73
2020/12/25 03:19:57;;;;;;;;;;;7.60;78.70;;;;;;2595669;22;19926;-72
2020/12/25 03:20:59;;;;;;;;;;;7.60;78.70;;;;;;2595889;22;19919;-75
2020/12/25 03:22:00;;;;;;;;;;;7.60;79.80;;;;;;2595758;22;20155;-71
2020/12/25 03:23:02;;;;;;;;;;;7.70;80.40;;;;;;2595729;22;20231;-73
2020/12/25 03:24:04;;;;;;;;;;;7.60;78.70;;;;;;2595680;22;19919;-73
2020/12/25 03:25:05;;;;;;;;;;;7.60;78.50;;;;;;2595820;22;19919;-72
2020/12/25 03:26:06;;;;;;;;;;;7.70;80.10;;;;;;2595592;22;19926;-76
2020/12/25 03:27:08;;;;;;;;;;;7.70;80.60;;;;;;2595934;22;19927;-73
2020/12/25 03:28:09;;;;;;;;;;;7.70;79.50;;;;;;2595578;22;19919;-73
2020/12/25 03:29:11;;;;;;;;;;;7.80;81.60;;;;;;2595584;22;20011;-73
2020/12/25 03:30:12;;;;;;;;;;;7.70;78.70;;;;;;2595621;22;19919;-72
2020/12/25 03:31:13;;;;;;;;;;;7.70;78.60;;;;;;2595605;22;19919;-73
2020/12/25 03:32:15;;;;;;;;;;;7.70;78.00;;;;;;2595524;22;20268;-72
2020/12/25 03:33:16;;;;;;;;;;;7.70;78.00;;;;;;2595355;22;19945;-73
2020/12/25 03:34:24;;;;;;;;;;;7.70;79.20;;;;;;2595407;22;20344;-73
2020/12/25 03:35:25;;;;;;;;;;;7.70;78.40;;;;;;2582313;23;19982;-71
2020/12/25 03:36:26;;;;;;;;;;;7.70;79.20;;;;;;2582371;22;20234;-73
2020/12/25 03:37:28;;;;;;;;;;;7.70;79.00;;;;;;2595314;22;19946;-75
2020/12/25 03:38:30;;;;;;;;;;;7.70;78.90;;;;;;2595755;22;19920;-74
2020/12/25 03:39:31;;;;;;;;;;;7.70;80.00;;;;;;2595850;22;19919;-71
2020/12/25 03:40:34;;;;;;;;;;;7.70;78.60;;;;;;2596532;22;20367;-72
2020/12/25 03:41:35;;;;;;;;;;;7.60;79.10;;;;;;2596470;22;20173;-72
2020/12/25 03:42:36;;;;;;;;;;;7.60;78.90;;;;;;2596369;22;19919;-75
2020/12/25 03:43:38;;;;;;;;;;;7.70;80.50;;;;;;2596472;22;19919;-73
2020/12/25 03:44:39;;;;;;;;;;;7.70;78.60;;;;;;2596557;22;20256;-72
2020/12/25 03:45:41;;;;;;;;;;;7.70;79.00;;;;;;2596347;22;19977;-72
2020/12/25 03:46:42;;;;;;;;;;;7.70;79.10;;;;;;2596171;22;19919;-72
2020/12/25 03:47:47;;;;;;;;;;;7.70;79.80;;;;;;2596324;22;19919;-72
2020/12/25 03:48:49;;;;;;;;;;;7.70;79.50;;;;;;2596347;22;19919;-72
2020/12/25 03:49:51;;;;;;;;;;;7.70;79.00;;;;;;2582726;23;20245;-75
2020/12/25 03:50:52;;;;;;;;;;;7.70;79.40;;;;;;2583249;22;19920;-72
2020/12/25 03:51:53;;;;;;;;;;;7.70;79.00;;;;;;2596492;22;19919;-72
2020/12/25 03:52:55;;;;;;;;;;;7.80;79.90;;;;;;2596494;22;20226;-71
2020/12/25 03:53:57;;;;;;;;;;;7.80;78.20;;;;;;2596491;22;20010;-74
2020/12/25 03:54:59;;;;;;;;;;;7.80;79.10;;;;;;2582985;23;19919;-73
2020/12/25 03:56:00;;;;;;;;;;;7.70;78.10;;;;;;2583245;22;20432;-72
2020/12/25 03:57:02;;;;;;;;;;;7.70;78.00;;;;;;2596288;22;19923;-75
2020/12/25 03:58:03;;;;;;;;;;;7.80;78.00;;;;;;2596260;22;19972;-74
2020/12/25 03:59:04;;;;;;;;;;;7.80;80.40;;;;;;2596298;22;19946;-76
2020/12/25 04:00:06;;;;;;;;;;;7.80;78.20;;;;;;2596200;22;20460;-75
2020/12/25 04:01:07;;;;;;;;;;;7.80;78.10;;;;;;2596138;22;19919;-75
2020/12/25 04:02:09;;;;;;;;;;;7.80;81.00;;;;;;2596115;22;20252;-72
2020/12/25 04:03:10;;;;;;;;;;;7.90;78.40;;;;;;2596493;22;19919;-73
2020/12/25 04:04:12;;;;;;;;;;;7.90;77.80;;;;;;2596427;22;19942;-75
2020/12/25 04:05:13;;;;;;;;;;;7.80;78.00;;;;;;2596334;22;20292;-71
2020/12/25 04:06:14;;;;;;;;;;;7.80;77.90;;;;;;2596433;22;19926;-74
2020/12/25 04:07:16;;;;;;;;;;;7.70;77.80;;;;;;2596407;22;19931;-75
2020/12/25 04:08:17;;;;;;;;;;;7.80;78.40;;;;;;2596134;22;19919;-73
2020/12/25 04:09:19;;;;;;;;;;;7.80;79.40;;;;;;2596401;22;19950;-72
2020/12/25 04:10:21;;;;;;;;;;;7.70;78.30;;;;;;2596579;22;20256;-73
2020/12/25 04:11:22;;;;;;;;;;;7.80;81.20;;;;;;2596795;22;19919;-73
2020/12/25 04:12:24;;;;;;;;;;;7.80;78.80;;;;;;2596307;22;19923;-72
2020/12/25 04:13:25;;;;;;;;;;;7.90;80.10;;;;;;2597074;22;19919;-72
2020/12/25 04:14:26;;;;;;;;;;;8.00;79.20;;;;;;2596871;22;19919;-73
2020/12/25 04:15:28;;;;;;;;;;;7.90;78.00;;;;;;2596591;22;19923;-76
2020/12/25 04:16:29;;;;;;;;;;;7.80;77.60;;;;;;2596844;22;19939;-74
2020/12/25 04:17:31;;;;;;;;;;;7.90;78.40;;;;;;2596971;22;19926;-72
2020/12/25 04:18:32;;;;;;;;;;;7.80;77.90;;;;;;2597053;22;19920;-72
2020/12/25 04:19:33;;;;;;;;;;;7.80;78.20;;;;;;2596962;22;20226;-74
2020/12/25 04:20:35;;;;;;;;;;;7.80;78.50;;;;;;2596691;22;20175;-76
2020/12/25 04:21:36;;;;;;;;;;;7.80;80.10;;;;;;2596480;22;20070;-73
2020/12/25 04:22:38;;;;;;;;;;;7.90;78.90;;;;;;2597548;22;20111;-72
2020/12/25 04:23:39;;;;;;;;;;;7.90;78.30;;;;;;2596759;22;20360;-74
2020/12/25 04:24:41;;;;;;;;;;;7.90;78.00;;;;;;2596947;22;19920;-75
2020/12/25 04:25:43;;;;;;;;;;;7.90;78.50;;;;;;2597071;22;19920;-74
2020/12/25 04:26:45;;;;;;;;;;;7.90;78.90;;;;;;2596562;22;19942;-74
2020/12/25 04:27:46;;;;;;;;;;;7.80;78.00;;;;;;2596306;22;20341;-72
2020/12/25 04:28:47;;;;;;;;;;;7.80;78.00;;;;;;2595934;22;20345;-73
2020/12/25 04:29:49;;;;;;;;;;;7.80;79.20;;;;;;2596405;22;20167;-74
2020/12/25 04:30:50;;;;;;;;;;;7.80;78.40;;;;;;2596335;22;19926;-75
2020/12/25 04:31:52;;;;;;;;;;;7.80;78.80;;;;;;2596565;22;19934;-72
2020/12/25 04:32:53;;;;;;;;;;;7.70;78.80;;;;;;2596036;22;20316;-72
2020/12/25 04:33:55;;;;;;;;;;;7.70;79.90;;;;;;2583124;23;19920;-73
2020/12/25 04:35:03;;;;;;;;;;;7.80;78.80;;;;;;2584611;22;19927;-73
2020/12/25 04:36:05;;;;;;;;;;;7.80;79.40;;;;;;2596381;22;19976;-74
2020/12/25 04:37:06;;;;;;;;;;;7.90;81.00;;;;;;2596489;22;19919;-74
2020/12/25 04:38:08;;;;;;;;;;;8.00;80.00;;;;;;2596940;22;19919;-75
2020/12/25 04:39:09;;;;;;;;;;;8.00;78.80;;;;;;2596428;22;20252;-74
2020/12/25 04:40:11;;;;;;;;;;;8.00;78.40;;;;;;2596888;22;19919;-74
2020/12/25 04:41:13;;;;;;;;;;;7.90;78.50;;;;;;2596365;22;19919;-75
2020/12/25 04:42:14;;;;;;;;;;;7.90;78.70;;;;;;2596814;22;19926;-72
2020/12/25 04:43:17;;;;;;;;;;;7.80;78.90;;;;;;2596149;22;19930;-73
2020/12/25 04:44:18;;;;;;;;;;;7.70;78.90;;;;;;2596146;22;19919;-72
2020/12/25 04:45:20;;;;;;;;;;;7.80;80.70;;;;;;2596312;22;19920;-76
2020/12/25 04:46:22;;;;;;;;;;;7.90;79.30;;;;;;2596570;22;19919;-72
2020/12/25 04:47:23;;;;;;;;;;;7.80;79.00;;;;;;2597053;22;19919;-73
2020/12/25 04:48:25;;;;;;;;;;;7.80;80.60;;;;;;2597216;22;19919;-73
2020/12/25 04:49:26;;;;;;;;;;;7.90;79.20;;;;;;2596377;22;19919;-74
2020/12/25 04:50:27;;;;;;;;;;;7.90;79.90;;;;;;2596430;22;20364;-77
2020/12/25 04:51:29;;;;;;;;;;;7.90;78.90;;;;;;2596905;22;19920;-74
2020/12/25 04:52:30;;;;;;;;;;;7.90;78.80;;;;;;2596669;22;19919;-78
2020/12/25 04:53:32;;;;;;;;;;;7.80;78.70;;;;;;2596733;22;19919;-75
2020/12/25 04:54:34;;;;;;;;;;;7.80;79.00;;;;;;2583596;23;19920;-74
2020/12/25 04:55:36;;;;;;;;;;;7.80;80.10;;;;;;2583477;22;20151;-72
2020/12/25 04:56:38;;;;;;;;;;;7.80;80.10;;;;;;2596557;22;19930;-72
2020/12/25 04:57:39;;;;;;;;;;;7.80;79.60;;;;;;2596698;22;19920;-72
2020/12/25 04:58:40;;;;;;;;;;;7.80;79.40;;;;;;2596404;22;19919;-72
2020/12/25 04:59:42;;;;;;;;;;;7.80;80.20;;;;;;2582905;23;19927;-74
2020/12/25 05:00:59;;;;;;;;;;;7.80;79.30;;;;;;2570665;23;19920;-75
2020/12/25 05:02:01;;;;;;;;;;;7.80;81.40;;;;;;2582692;23;19927;-73
2020/12/25 05:03:05;;;;;;;;;;;7.90;79.40;;;;;;2583084;22;19919;-74
2020/12/25 05:04:17;;;;;;;;;;;7.90;79.00;;;;;;2596442;22;19919;-73
2020/12/25 05:05:25;;;;;;;;;;;7.80;78.90;;;;;;2596732;22;20092;-76
2020/12/25 05:06:29;;;;;;;;;;;7.80;79.70;;;;;;2596378;22;19919;-74
2020/12/25 05:07:30;;;;;;;;;;;7.70;79.40;;;;;;2596285;22;19920;-74
2020/12/25 05:08:35;;;;;;;;;;;7.70;79.20;;;;;;2596268;22;19919;-73
2020/12/25 05:09:36;;;;;;;;;;;7.70;79.30;;;;;;2596192;22;19919;-75
2020/12/25 05:10:39;;;;;;;;;;;7.70;79.90;;;;;;2596313;22;19923;-74
2020/12/25 05:11:40;;;;;;;;;;;7.70;79.80;;;;;;2596746;22;19919;-71
2020/12/25 05:12:45;;;;;;;;;;;7.60;80.00;;;;;;2596252;22;19919;-73
2020/12/25 05:13:47;;;;;;;;;;;7.60;79.80;;;;;;2595866;22;19919;-73
2020/12/25 05:14:48;;;;;;;;;;;7.60;79.70;;;;;;2597020;22;19930;-75
2020/12/25 05:15:50;;;;;;;;;;;7.60;80.00;;;;;;2596092;22;19919;-73
2020/12/25 05:16:53;;;;;;;;;;;7.60;80.40;;;;;;2596379;22;19942;-74
2020/12/25 05:17:55;;;;;;;;;;;7.60;80.90;;;;;;2596242;22;20233;-72
2020/12/25 05:18:58;;;;;;;;;;;7.60;80.50;;;;;;2595973;22;19927;-72
2020/12/25 05:20:00;;;;;;;;;;;7.50;80.80;;;;;;2596316;22;20001;-74
2020/12/25 05:21:08;;;;;;;;;;;7.50;81.00;;;;;;2596457;22;19919;-73
2020/12/25 05:22:09;;;;;;;;;;;7.60;81.10;;;;;;2596440;22;19939;-73
2020/12/25 05:23:11;;;;;;;;;;;7.50;81.10;;;;;;2596456;22;20079;-72
2020/12/25 05:24:12;;;;;;;;;;;7.60;81.20;;;;;;2596411;22;19926;-72
2020/12/25 05:25:17;;;;;;;;;;;7.60;80.90;;;;;;2596269;22;19926;-74
2020/12/25 05:26:19;;;;;;;;;;;7.60;81.00;;;;;;2596140;22;19931;-73
2020/12/25 05:27:23;;;;;;;;;;;7.60;80.60;;;;;;2596139;22;19987;-75
2020/12/25 05:28:25;;;;;;;;;;;7.60;81.10;;;;;;2595869;22;19919;-75
2020/12/25 05:29:28;;;;;;;;;;;7.70;81.20;;;;;;2596206;22;19926;-74
2020/12/25 05:30:29;;;;;;;;;;;7.70;80.70;;;;;;2595941;22;19920;-74
2020/12/25 05:31:31;;;;;;;;;;;7.70;81.00;;;;;;2596138;22;19920;-74
2020/12/25 05:32:33;;;;;;;;;;;7.80;81.10;;;;;;2596033;22;20351;-75
2020/12/25 05:33:35;;;;;;;;;;;7.80;80.20;;;;;;2596696;22;19920;-72
2020/12/25 05:34:37;;;;;;;;;;;7.80;80.40;;;;;;2596811;22;19919;-73
2020/12/25 05:35:42;;;;;;;;;;;7.70;79.90;;;;;;2583315;23;19919;-74
2020/12/25 05:36:48;;;;;;;;;;;7.70;80.00;;;;;;2572063;23;19946;-75
2020/12/25 05:37:49;;;;;;;;;;;7.70;80.80;;;;;;2584855;22;19931;-71
2020/12/25 05:38:51;;;;;;;;;;;7.70;80.60;;;;;;2596737;22;20248;-72
2020/12/25 05:39:52;;;;;;;;;;;7.70;80.60;;;;;;2596864;22;19926;-75
2020/12/25 05:40:54;;;;;;;;;;;7.80;81.40;;;;;;2596750;22;19986;-73
2020/12/25 05:41:58;;;;;;;;;;;7.80;81.50;;;;;;2596423;22;19927;-75
2020/12/25 05:43:03;;;;;;;;;;;7.80;80.30;;;;;;2596003;22;19919;-73
2020/12/25 05:44:05;;;;;;;;;;;7.80;80.50;;;;;;2596133;22;19926;-74
2020/12/25 05:45:06;;;;;;;;;;;7.80;80.00;;;;;;2595860;22;20321;-73
2020/12/25 05:46:11;;;;;;;;;;;7.80;80.00;;;;;;2582401;23;20226;-72
2020/12/25 05:47:13;;;;;;;;;;;7.70;79.70;;;;;;2570944;23;19931;-73
2020/12/25 05:48:15;;;;;;;;;;;7.80;80.20;;;;;;2583021;22;19924;-73
2020/12/25 05:49:16;;;;;;;;;;;7.80;79.90;;;;;;2595816;22;19919;-74
2020/12/25 05:50:18;;;;;;;;;;;7.70;79.60;;;;;;2596092;22;19971;-77
2020/12/25 05:51:20;;;;;;;;;;;7.70;80.10;;;;;;2595839;22;19970;-73
2020/12/25 05:52:22;;;;;;;;;;;7.70;80.20;;;;;;2595846;22;19919;-73
2020/12/25 05:53:23;;;;;;;;;;;7.80;81.40;;;;;;2596209;22;19919;-76
2020/12/25 05:54:25;;;;;;;;;;;7.90;81.10;;;;;;2597931;22;19930;-73
2020/12/25 05:55:27;;;;;;;;;;;7.90;80.40;;;;;;2599527;22;20257;-72
2020/12/25 05:56:28;;;;;;;;;;;7.90;79.80;;;;;;2599695;22;19919;-72
2020/12/25 05:57:33;;;;;;;;;;;7.90;80.20;;;;;;2599286;22;19926;-73
2020/12/25 05:58:38;;;;;;;;;;;7.90;79.40;;;;;;2599118;22;19942;-73
2020/12/25 05:59:44;;;;;;;;;;;7.90;79.40;;;;;;2600092;22;19952;-75
2020/12/25 06:00:46;;;;;;;;;;;7.70;79.40;;;;;;2599569;22;19926;-72
2020/12/25 06:01:48;;;;;;;;;;;7.70;81.10;;;;;;2598745;22;19919;-73
2020/12/25 06:02:50;;;;;;;;;;;7.80;80.90;;;;;;2596789;22;19919;-75
2020/12/25 06:03:52;;;;;;;;;;;7.70;79.80;;;;;;2596795;22;19919;-74
2020/12/25 06:04:55;;;;;;;;;;;7.70;79.80;;;;;;2596819;22;20348;-74
2020/12/25 06:06:10;;;;;;;;;;;7.80;81.90;;;;;;2596588;22;19945;-73